sensor_id;sensor_type;location;lat;lon;timestamp;P1;durP1;ratioP1;P2;durP2;ratioP2
42944;SDS011;28584;42.636;23.294;2022-09-09T00:15:14;12.45;;;11.20;;
42944;SDS011;28584;42.636;23.294;2022-09-09T00:17:51;12.50;;;11.30;;
42944;SDS011;28584;42.636;23.294;2022-09-09T00:20:23;13.35;;;11.75;;
42944;SDS011;28584;42.636;23.294;2022-09-09T00:22:53;14.68;;;12.13;;
42944;SDS011;28584;42.636;23.294;2022-09-09T00:25:40;12.00;;;10.48;;
42944;SDS011;28584;42.636;23.294;2022-09-09T00:28:20;12.48;;;11.18;;
42944;SDS011;28584;42.636;23.294;2022-09-09T00:30:48;12.48;;;11.27;;
42944;SDS011;28584;42.636;23.294;2022-09-09T00:33:14;12.45;;;11.18;;
42944;SDS011;28584;42.636;23.294;2022-09-09T00:35:49;13.23;;;11.50;;
42944;SDS011;28584;42.636;23.294;2022-09-09T00:39:03;12.77;;;11.48;;
42944;SDS011;28584;42.636;23.294;2022-09-09T00:41:18;12.13;;;10.88;;
42944;SDS011;28584;42.636;23.294;2022-09-09T00:43:47;12.45;;;11.27;;
42944;SDS011;28584;42.636;23.294;2022-09-09T00:57:36;14.23;;;11.40;;
42944;SDS011;28584;42.636;23.294;2022-09-09T01:00:16;20.33;;;11.93;;
42944;SDS011;28584;42.636;23.294;2022-09-09T01:08:20;12.68;;;11.32;;
42944;SDS011;28584;42.636;23.294;2022-09-09T01:10:53;13.25;;;11.73;;
42944;SDS011;28584;42.636;23.294;2022-09-09T01:13:24;13.52;;;11.65;;
42944;SDS011;28584;42.636;23.294;2022-09-09T01:15:58;15.18;;;12.40;;
42944;SDS011;28584;42.636;23.294;2022-09-09T01:18:26;12.80;;;11.40;;
42944;SDS011;28584;42.636;23.294;2022-09-09T01:21:02;14.07;;;12.68;;
42944;SDS011;28584;42.636;23.294;2022-09-09T01:28:53;16.20;;;13.43;;
42944;SDS011;28584;42.636;23.294;2022-09-09T01:31:32;14.23;;;12.73;;
42944;SDS011;28584;42.636;23.294;2022-09-09T01:34:02;15.55;;;13.38;;
42944;SDS011;28584;42.636;23.294;2022-09-09T01:36:35;15.30;;;12.80;;
42944;SDS011;28584;42.636;23.294;2022-09-09T01:39:08;14.43;;;12.88;;
42944;SDS011;28584;42.636;23.294;2022-09-09T01:41:33;14.27;;;12.25;;
42944;SDS011;28584;42.636;23.294;2022-09-09T01:43:59;14.55;;;13.05;;
42944;SDS011;28584;42.636;23.294;2022-09-09T01:46:30;14.07;;;12.68;;
42944;SDS011;28584;42.636;23.294;2022-09-09T01:48:56;13.93;;;12.63;;
42944;SDS011;28584;42.636;23.294;2022-09-09T01:51:24;13.73;;;12.32;;
42944;SDS011;28584;42.636;23.294;2022-09-09T01:53:49;14.60;;;13.20;;
42944;SDS011;28584;42.636;23.294;2022-09-09T01:56:21;13.88;;;12.48;;
42944;SDS011;28584;42.636;23.294;2022-09-09T01:59:14;14.40;;;13.00;;
42944;SDS011;28584;42.636;23.294;2022-09-09T02:01:45;14.32;;;12.80;;
42944;SDS011;28584;42.636;23.294;2022-09-09T02:04:18;14.57;;;13.10;;
42944;SDS011;28584;42.636;23.294;2022-09-09T02:06:53;17.52;;;13.60;;
42944;SDS011;28584;42.636;23.294;2022-09-09T02:09:22;16.85;;;14.48;;
42944;SDS011;28584;42.636;23.294;2022-09-09T02:11:49;16.83;;;14.75;;
42944;SDS011;28584;42.636;23.294;2022-09-09T02:14:22;16.50;;;14.20;;
42944;SDS011;28584;42.636;23.294;2022-09-09T02:16:55;16.58;;;14.90;;
42944;SDS011;28584;42.636;23.294;2022-09-09T02:19:44;17.45;;;15.07;;
42944;SDS011;28584;42.636;23.294;2022-09-09T02:22:15;15.38;;;13.82;;
42944;SDS011;28584;42.636;23.294;2022-09-09T02:24:43;16.77;;;14.20;;
42944;SDS011;28584;42.636;23.294;2022-09-09T02:27:11;17.50;;;13.80;;
42944;SDS011;28584;42.636;23.294;2022-09-09T02:29:40;16.10;;;14.55;;
42944;SDS011;28584;42.636;23.294;2022-09-09T02:32:09;15.10;;;13.25;;
42944;SDS011;28584;42.636;23.294;2022-09-09T02:34:43;18.95;;;16.20;;
42944;SDS011;28584;42.636;23.294;2022-09-09T02:37:12;16.63;;;14.25;;
42944;SDS011;28584;42.636;23.294;2022-09-09T02:39:42;17.90;;;16.00;;
42944;SDS011;28584;42.636;23.294;2022-09-09T02:42:07;19.55;;;16.15;;
42944;SDS011;28584;42.636;23.294;2022-09-09T02:44:33;20.42;;;15.63;;
42944;SDS011;28584;42.636;23.294;2022-09-09T02:52:37;18.33;;;16.45;;
42944;SDS011;28584;42.636;23.294;2022-09-09T02:55:07;16.42;;;14.43;;
42944;SDS011;28584;42.636;23.294;2022-09-09T02:57:44;15.27;;;13.77;;
42944;SDS011;28584;42.636;23.294;2022-09-09T03:00:12;15.07;;;13.57;;
42944;SDS011;28584;42.636;23.294;2022-09-09T03:02:38;15.45;;;13.98;;
42944;SDS011;28584;42.636;23.294;2022-09-09T03:05:04;15.30;;;13.70;;
42944;SDS011;28584;42.636;23.294;2022-09-09T03:07:31;15.48;;;13.65;;
42944;SDS011;28584;42.636;23.294;2022-09-09T03:09:56;16.30;;;14.30;;
42944;SDS011;28584;42.636;23.294;2022-09-09T03:12:23;16.90;;;15.20;;
42944;SDS011;28584;42.636;23.294;2022-09-09T03:14:48;17.08;;;15.27;;
42944;SDS011;28584;42.636;23.294;2022-09-09T03:17:14;20.10;;;15.98;;
42944;SDS011;28584;42.636;23.294;2022-09-09T03:19:40;17.83;;;15.95;;
42944;SDS011;28584;42.636;23.294;2022-09-09T03:22:06;16.95;;;15.18;;
42944;SDS011;28584;42.636;23.294;2022-09-09T03:24:33;17.45;;;15.60;;
42944;SDS011;28584;42.636;23.294;2022-09-09T03:26:58;18.85;;;15.13;;
42944;SDS011;28584;42.636;23.294;2022-09-09T03:29:23;22.23;;;15.57;;
42944;SDS011;28584;42.636;23.294;2022-09-09T03:31:49;16.02;;;14.43;;
42944;SDS011;28584;42.636;23.294;2022-09-09T03:34:15;15.95;;;14.25;;
42944;SDS011;28584;42.636;23.294;2022-09-09T03:36:40;15.00;;;13.65;;
42944;SDS011;28584;42.636;23.294;2022-09-09T03:39:06;17.58;;;14.60;;
42944;SDS011;28584;42.636;23.294;2022-09-09T03:41:31;16.75;;;15.07;;
42944;SDS011;28584;42.636;23.294;2022-09-09T03:43:57;15.93;;;14.43;;
42944;SDS011;28584;42.636;23.294;2022-09-09T03:46:23;15.32;;;13.82;;
42944;SDS011;28584;42.636;23.294;2022-09-09T03:48:49;15.38;;;13.93;;
42944;SDS011;28584;42.636;23.294;2022-09-09T03:51:15;16.15;;;14.43;;
42944;SDS011;28584;42.636;23.294;2022-09-09T03:53:42;15.25;;;13.65;;
42944;SDS011;28584;42.636;23.294;2022-09-09T03:56:08;14.38;;;12.77;;
42944;SDS011;28584;42.636;23.294;2022-09-09T03:58:34;18.10;;;14.23;;
42944;SDS011;28584;42.636;23.294;2022-09-09T04:01:01;15.55;;;13.95;;
42944;SDS011;28584;42.636;23.294;2022-09-09T04:03:27;15.95;;;14.25;;
42944;SDS011;28584;42.636;23.294;2022-09-09T04:05:53;15.18;;;13.68;;
42944;SDS011;28584;42.636;23.294;2022-09-09T04:08:20;14.75;;;13.25;;
42944;SDS011;28584;42.636;23.294;2022-09-09T04:10:47;16.40;;;14.70;;
42944;SDS011;28584;42.636;23.294;2022-09-09T04:13:15;16.10;;;13.98;;
42944;SDS011;28584;42.636;23.294;2022-09-09T04:15:42;16.38;;;14.68;;
42944;SDS011;28584;42.636;23.294;2022-09-09T04:18:15;15.65;;;14.05;;
42944;SDS011;28584;42.636;23.294;2022-09-09T04:20:40;18.10;;;16.35;;
42944;SDS011;28584;42.636;23.294;2022-09-09T04:23:08;17.00;;;15.27;;
42944;SDS011;28584;42.636;23.294;2022-09-09T04:25:33;16.02;;;13.77;;
42944;SDS011;28584;42.636;23.294;2022-09-09T04:27:59;16.23;;;14.73;;
42944;SDS011;28584;42.636;23.294;2022-09-09T04:30:24;15.18;;;13.77;;
42944;SDS011;28584;42.636;23.294;2022-09-09T04:32:50;15.50;;;13.40;;
42944;SDS011;28584;42.636;23.294;2022-09-09T04:35:16;14.75;;;13.07;;
42944;SDS011;28584;42.636;23.294;2022-09-09T04:37:41;17.60;;;13.73;;
42944;SDS011;28584;42.636;23.294;2022-09-09T04:40:07;15.02;;;13.52;;
42944;SDS011;28584;42.636;23.294;2022-09-09T04:42:38;15.60;;;14.00;;
42944;SDS011;28584;42.636;23.294;2022-09-09T04:45:04;14.18;;;12.77;;
42944;SDS011;28584;42.636;23.294;2022-09-09T04:47:31;14.80;;;13.30;;
42944;SDS011;28584;42.636;23.294;2022-09-09T04:49:57;16.15;;;14.55;;
42944;SDS011;28584;42.636;23.294;2022-09-09T04:52:23;13.70;;;12.30;;
42944;SDS011;28584;42.636;23.294;2022-09-09T04:54:48;15.30;;;13.68;;
42944;SDS011;28584;42.636;23.294;2022-09-09T04:57:14;16.05;;;12.80;;
42944;SDS011;28584;42.636;23.294;2022-09-09T04:59:39;17.70;;;12.30;;
42944;SDS011;28584;42.636;23.294;2022-09-09T05:02:05;12.00;;;10.88;;
42944;SDS011;28584;42.636;23.294;2022-09-09T05:04:30;12.05;;;10.35;;
42944;SDS011;28584;42.636;23.294;2022-09-09T05:06:56;12.13;;;9.65;;
42944;SDS011;28584;42.636;23.294;2022-09-09T05:09:21;16.92;;;10.82;;
42944;SDS011;28584;42.636;23.294;2022-09-09T05:11:47;14.10;;;10.55;;
42944;SDS011;28584;42.636;23.294;2022-09-09T05:14:12;11.98;;;10.65;;
42944;SDS011;28584;42.636;23.294;2022-09-09T05:16:39;15.13;;;11.27;;
42944;SDS011;28584;42.636;23.294;2022-09-09T05:19:05;11.57;;;10.35;;
42944;SDS011;28584;42.636;23.294;2022-09-09T05:21:33;12.18;;;10.35;;
42944;SDS011;28584;42.636;23.294;2022-09-09T05:23:58;13.30;;;8.95;;
42944;SDS011;28584;42.636;23.294;2022-09-09T05:26:25;9.25;;;8.15;;
42944;SDS011;28584;42.636;23.294;2022-09-09T05:28:51;8.82;;;7.60;;
42944;SDS011;28584;42.636;23.294;2022-09-09T05:31:17;8.90;;;7.63;;
42944;SDS011;28584;42.636;23.294;2022-09-09T05:33:44;9.50;;;7.70;;
42944;SDS011;28584;42.636;23.294;2022-09-09T05:36:12;11.15;;;8.57;;
42944;SDS011;28584;42.636;23.294;2022-09-09T05:38:42;13.70;;;10.32;;
42944;SDS011;28584;42.636;23.294;2022-09-09T05:41:08;11.02;;;9.90;;
42944;SDS011;28584;42.636;23.294;2022-09-09T05:43:36;13.00;;;10.50;;
42944;SDS011;28584;42.636;23.294;2022-09-09T05:48:30;15.77;;;12.60;;
42944;SDS011;28584;42.636;23.294;2022-09-09T05:50:57;16.98;;;13.65;;
42944;SDS011;28584;42.636;23.294;2022-09-09T05:53:23;14.48;;;11.43;;
42944;SDS011;28584;42.636;23.294;2022-09-09T05:55:48;16.08;;;12.68;;
42944;SDS011;28584;42.636;23.294;2022-09-09T05:58:14;16.73;;;11.90;;
42944;SDS011;28584;42.636;23.294;2022-09-09T06:00:42;14.52;;;11.63;;
42944;SDS011;28584;42.636;23.294;2022-09-09T06:03:11;14.10;;;11.65;;
42944;SDS011;28584;42.636;23.294;2022-09-09T06:05:37;18.13;;;11.30;;
42944;SDS011;28584;42.636;23.294;2022-09-09T06:08:03;13.15;;;11.38;;
42944;SDS011;28584;42.636;23.294;2022-09-09T06:10:28;21.65;;;11.75;;
42944;SDS011;28584;42.636;23.294;2022-09-09T06:12:54;17.58;;;11.85;;
42944;SDS011;28584;42.636;23.294;2022-09-09T06:15:19;17.63;;;11.38;;
42944;SDS011;28584;42.636;23.294;2022-09-09T06:17:45;14.85;;;12.38;;
42944;SDS011;28584;42.636;23.294;2022-09-09T06:20:10;13.68;;;11.32;;
42944;SDS011;28584;42.636;23.294;2022-09-09T06:22:38;19.40;;;10.65;;
42944;SDS011;28584;42.636;23.294;2022-09-09T06:25:05;15.65;;;11.20;;
42944;SDS011;28584;42.636;23.294;2022-09-09T06:27:32;17.92;;;11.18;;
42944;SDS011;28584;42.636;23.294;2022-09-09T06:29:58;14.90;;;10.73;;
42944;SDS011;28584;42.636;23.294;2022-09-09T06:32:23;20.70;;;11.65;;
42944;SDS011;28584;42.636;23.294;2022-09-09T06:34:48;13.10;;;11.40;;
42944;SDS011;28584;42.636;23.294;2022-09-09T06:37:14;17.23;;;10.82;;
42944;SDS011;28584;42.636;23.294;2022-09-09T06:39:41;21.70;;;10.68;;
42944;SDS011;28584;42.636;23.294;2022-09-09T06:42:07;18.27;;;10.57;;
42944;SDS011;28584;42.636;23.294;2022-09-09T06:44:33;18.42;;;10.75;;
42944;SDS011;28584;42.636;23.294;2022-09-09T06:46:58;13.32;;;10.90;;
42944;SDS011;28584;42.636;23.294;2022-09-09T06:49:24;14.38;;;11.02;;
42944;SDS011;28584;42.636;23.294;2022-09-09T06:51:49;16.50;;;11.55;;
42944;SDS011;28584;42.636;23.294;2022-09-09T06:54:17;11.40;;;9.95;;
42944;SDS011;28584;42.636;23.294;2022-09-09T06:56:43;19.00;;;10.20;;
42944;SDS011;28584;42.636;23.294;2022-09-09T06:59:10;15.38;;;10.07;;
42944;SDS011;28584;42.636;23.294;2022-09-09T07:01:41;24.10;;;10.23;;
42944;SDS011;28584;42.636;23.294;2022-09-09T07:04:11;14.82;;;9.68;;
42944;SDS011;28584;42.636;23.294;2022-09-09T07:06:42;12.98;;;9.38;;
42944;SDS011;28584;42.636;23.294;2022-09-09T07:09:10;14.38;;;10.20;;
42944;SDS011;28584;42.636;23.294;2022-09-09T07:11:39;16.35;;;9.23;;
42944;SDS011;28584;42.636;23.294;2022-09-09T07:14:06;12.60;;;9.40;;
42944;SDS011;28584;42.636;23.294;2022-09-09T07:16:32;13.30;;;8.90;;
42944;SDS011;28584;42.636;23.294;2022-09-09T07:19:00;13.70;;;9.90;;
42944;SDS011;28584;42.636;23.294;2022-09-09T07:21:26;14.15;;;9.68;;
42944;SDS011;28584;42.636;23.294;2022-09-09T07:23:53;13.15;;;9.60;;
42944;SDS011;28584;42.636;23.294;2022-09-09T07:26:20;12.07;;;9.50;;
42944;SDS011;28584;42.636;23.294;2022-09-09T07:28:48;13.20;;;9.27;;
42944;SDS011;28584;42.636;23.294;2022-09-09T07:31:17;14.15;;;10.23;;
42944;SDS011;28584;42.636;23.294;2022-09-09T07:33:45;14.90;;;9.48;;
42944;SDS011;28584;42.636;23.294;2022-09-09T07:36:15;15.80;;;9.70;;
42944;SDS011;28584;42.636;23.294;2022-09-09T07:38:46;12.23;;;9.15;;
42944;SDS011;28584;42.636;23.294;2022-09-09T07:41:19;14.50;;;9.45;;
42944;SDS011;28584;42.636;23.294;2022-09-09T07:43:45;13.40;;;9.63;;
42944;SDS011;28584;42.636;23.294;2022-09-09T07:46:14;16.73;;;8.90;;
42944;SDS011;28584;42.636;23.294;2022-09-09T07:48:44;11.20;;;7.72;;
42944;SDS011;28584;42.636;23.294;2022-09-09T07:51:15;14.43;;;8.48;;
42944;SDS011;28584;42.636;23.294;2022-09-09T07:53:44;13.55;;;9.38;;
42944;SDS011;28584;42.636;23.294;2022-09-09T07:56:11;16.60;;;9.30;;
42944;SDS011;28584;42.636;23.294;2022-09-09T07:58:42;11.63;;;8.35;;
42944;SDS011;28584;42.636;23.294;2022-09-09T08:01:10;13.23;;;8.30;;
42944;SDS011;28584;42.636;23.294;2022-09-09T08:03:43;15.38;;;7.97;;
42944;SDS011;28584;42.636;23.294;2022-09-09T08:06:09;14.27;;;8.68;;
42944;SDS011;28584;42.636;23.294;2022-09-09T08:08:36;15.98;;;8.45;;
42944;SDS011;28584;42.636;23.294;2022-09-09T08:11:13;10.45;;;7.95;;
42944;SDS011;28584;42.636;23.294;2022-09-09T08:13:40;16.90;;;8.65;;
42944;SDS011;28584;42.636;23.294;2022-09-09T08:16:08;12.45;;;8.43;;
42944;SDS011;28584;42.636;23.294;2022-09-09T08:18:34;12.32;;;8.35;;
42944;SDS011;28584;42.636;23.294;2022-09-09T08:21:10;14.73;;;8.68;;
42944;SDS011;28584;42.636;23.294;2022-09-09T08:23:41;18.20;;;7.75;;
42944;SDS011;28584;42.636;23.294;2022-09-09T08:26:10;12.52;;;8.70;;
42944;SDS011;28584;42.636;23.294;2022-09-09T08:28:35;15.15;;;7.80;;
42944;SDS011;28584;42.636;23.294;2022-09-09T08:31:04;12.25;;;8.60;;
42944;SDS011;28584;42.636;23.294;2022-09-09T08:33:34;11.27;;;7.75;;
42944;SDS011;28584;42.636;23.294;2022-09-09T08:36:02;10.70;;;8.15;;
42944;SDS011;28584;42.636;23.294;2022-09-09T08:38:28;16.08;;;8.00;;
42944;SDS011;28584;42.636;23.294;2022-09-09T08:40:53;15.90;;;9.05;;
42944;SDS011;28584;42.636;23.294;2022-09-09T08:43:26;20.23;;;9.18;;
42944;SDS011;28584;42.636;23.294;2022-09-09T08:46:15;13.27;;;8.00;;
42944;SDS011;28584;42.636;23.294;2022-09-09T08:49:02;13.80;;;7.60;;
42944;SDS011;28584;42.636;23.294;2022-09-09T08:51:45;12.77;;;8.00;;
42944;SDS011;28584;42.636;23.294;2022-09-09T08:54:14;9.88;;;6.75;;
42944;SDS011;28584;42.636;23.294;2022-09-09T08:56:40;12.80;;;7.38;;
42944;SDS011;28584;42.636;23.294;2022-09-09T08:59:05;13.65;;;7.65;;
42944;SDS011;28584;42.636;23.294;2022-09-09T09:12:43;16.63;;;7.90;;
42944;SDS011;28584;42.636;23.294;2022-09-09T09:15:20;10.18;;;7.18;;
42944;SDS011;28584;42.636;23.294;2022-09-09T09:17:48;10.85;;;7.53;;
42944;SDS011;28584;42.636;23.294;2022-09-09T09:20:14;13.77;;;7.82;;
42944;SDS011;28584;42.636;23.294;2022-09-09T09:22:49;10.93;;;7.22;;
42944;SDS011;28584;42.636;23.294;2022-09-09T09:36:14;12.57;;;7.30;;
42944;SDS011;28584;42.636;23.294;2022-09-09T09:38:51;9.15;;;6.22;;
42944;SDS011;28584;42.636;23.294;2022-09-09T09:41:36;10.07;;;7.00;;
42944;SDS011;28584;42.636;23.294;2022-09-09T09:44:04;9.68;;;6.43;;
42944;SDS011;28584;42.636;23.294;2022-09-09T09:46:30;15.50;;;6.88;;
42944;SDS011;28584;42.636;23.294;2022-09-09T09:48:57;11.73;;;6.22;;
42944;SDS011;28584;42.636;23.294;2022-09-09T09:51:30;11.02;;;6.55;;
42944;SDS011;28584;42.636;23.294;2022-09-09T09:56:53;10.05;;;6.32;;
42944;SDS011;28584;42.636;23.294;2022-09-09T09:59:22;9.50;;;6.35;;
42944;SDS011;28584;42.636;23.294;2022-09-09T10:01:53;7.00;;;6.00;;
42944;SDS011;28584;42.636;23.294;2022-09-09T10:04:20;7.07;;;6.32;;
42944;SDS011;28584;42.636;23.294;2022-09-09T10:06:48;7.90;;;6.03;;
42944;SDS011;28584;42.636;23.294;2022-09-09T10:09:24;7.75;;;6.20;;
42944;SDS011;28584;42.636;23.294;2022-09-09T10:19:32;10.88;;;6.65;;
42944;SDS011;28584;42.636;23.294;2022-09-09T10:33:09;17.60;;;6.60;;
42944;SDS011;28584;42.636;23.294;2022-09-09T10:35:57;11.32;;;6.32;;
42944;SDS011;28584;42.636;23.294;2022-09-09T10:38:40;9.00;;;6.30;;
42944;SDS011;28584;42.636;23.294;2022-09-09T10:41:19;14.40;;;7.00;;
42944;SDS011;28584;42.636;23.294;2022-09-09T10:54:56;9.60;;;6.63;;
42944;SDS011;28584;42.636;23.294;2022-09-09T10:57:29;8.88;;;6.35;;
42944;SDS011;28584;42.636;23.294;2022-09-09T11:00:03;14.20;;;7.07;;
42944;SDS011;28584;42.636;23.294;2022-09-09T11:02:31;10.95;;;6.80;;
42944;SDS011;28584;42.636;23.294;2022-09-09T11:05:00;10.10;;;7.05;;
42944;SDS011;28584;42.636;23.294;2022-09-09T11:10:25;8.00;;;6.13;;
42944;SDS011;28584;42.636;23.294;2022-09-09T11:12:51;12.18;;;6.45;;
42944;SDS011;28584;42.636;23.294;2022-09-09T11:15:28;13.07;;;6.32;;
42944;SDS011;28584;42.636;23.294;2022-09-09T11:18:19;9.18;;;6.35;;
42944;SDS011;28584;42.636;23.294;2022-09-09T11:20:49;8.90;;;6.13;;
42944;SDS011;28584;42.636;23.294;2022-09-09T11:26:25;11.43;;;7.28;;
42944;SDS011;28584;42.636;23.294;2022-09-09T11:31:33;10.70;;;7.28;;
42944;SDS011;28584;42.636;23.294;2022-09-09T11:44:43;15.55;;;8.30;;
42944;SDS011;28584;42.636;23.294;2022-09-09T11:47:50;12.57;;;7.93;;
42944;SDS011;28584;42.636;23.294;2022-09-09T11:50:10;12.75;;;8.07;;
42944;SDS011;28584;42.636;23.294;2022-09-09T11:53:02;17.67;;;7.80;;
42944;SDS011;28584;42.636;23.294;2022-09-09T11:55:59;26.25;;;9.73;;
42944;SDS011;28584;42.636;23.294;2022-09-09T11:58:31;12.52;;;8.40;;
42944;SDS011;28584;42.636;23.294;2022-09-09T12:01:01;14.23;;;8.93;;
42944;SDS011;28584;42.636;23.294;2022-09-09T12:06:54;11.55;;;8.05;;
42944;SDS011;28584;42.636;23.294;2022-09-09T12:17:17;13.35;;;8.07;;
42944;SDS011;28584;42.636;23.294;2022-09-09T12:19:45;17.63;;;8.65;;
42944;SDS011;28584;42.636;23.294;2022-09-09T12:30:55;14.38;;;7.30;;
42944;SDS011;28584;42.636;23.294;2022-09-09T12:33:33;14.45;;;7.80;;
42944;SDS011;28584;42.636;23.294;2022-09-09T12:36:01;14.07;;;8.88;;
42944;SDS011;28584;42.636;23.294;2022-09-09T12:38:34;11.98;;;8.25;;
42944;SDS011;28584;42.636;23.294;2022-09-09T12:41:05;14.77;;;9.18;;
42944;SDS011;28584;42.636;23.294;2022-09-09T12:43:31;15.07;;;9.30;;
42944;SDS011;28584;42.636;23.294;2022-09-09T12:46:01;18.90;;;9.80;;
42944;SDS011;28584;42.636;23.294;2022-09-09T12:48:33;20.88;;;13.18;;
42944;SDS011;28584;42.636;23.294;2022-09-09T12:51:04;15.98;;;9.25;;
42944;SDS011;28584;42.636;23.294;2022-09-09T12:53:35;13.77;;;10.07;;
42944;SDS011;28584;42.636;23.294;2022-09-09T12:56:06;14.40;;;8.32;;
42944;SDS011;28584;42.636;23.294;2022-09-09T12:58:33;11.85;;;9.05;;
42944;SDS011;28584;42.636;23.294;2022-09-09T13:01:01;16.92;;;8.68;;
42944;SDS011;28584;42.636;23.294;2022-09-09T13:03:30;15.27;;;8.80;;
42944;SDS011;28584;42.636;23.294;2022-09-09T13:06:19;12.93;;;8.25;;
42944;SDS011;28584;42.636;23.294;2022-09-09T13:08:50;17.15;;;9.02;;
42944;SDS011;28584;42.636;23.294;2022-09-09T13:11:17;11.55;;;9.25;;
42944;SDS011;28584;42.636;23.294;2022-09-09T13:14:12;19.88;;;9.00;;
42944;SDS011;28584;42.636;23.294;2022-09-09T13:16:53;11.50;;;9.32;;
42944;SDS011;28584;42.636;23.294;2022-09-09T13:19:20;18.42;;;8.32;;
42944;SDS011;28584;42.636;23.294;2022-09-09T13:21:46;12.48;;;8.30;;
42944;SDS011;28584;42.636;23.294;2022-09-09T13:24:30;13.85;;;8.93;;
42944;SDS011;28584;42.636;23.294;2022-09-09T13:27:05;18.25;;;9.07;;
42944;SDS011;28584;42.636;23.294;2022-09-09T13:29:52;15.85;;;8.75;;
42944;SDS011;28584;42.636;23.294;2022-09-09T13:32:22;17.30;;;9.13;;
42944;SDS011;28584;42.636;23.294;2022-09-09T13:34:59;14.75;;;9.02;;
42944;SDS011;28584;42.636;23.294;2022-09-09T13:37:36;14.27;;;9.15;;
42944;SDS011;28584;42.636;23.294;2022-09-09T13:40:04;14.63;;;8.73;;
42944;SDS011;28584;42.636;23.294;2022-09-09T13:42:32;11.85;;;8.75;;
42944;SDS011;28584;42.636;23.294;2022-09-09T13:45:00;11.80;;;7.80;;
42944;SDS011;28584;42.636;23.294;2022-09-09T13:47:35;11.93;;;8.82;;
42944;SDS011;28584;42.636;23.294;2022-09-09T13:50:20;11.07;;;7.97;;
42944;SDS011;28584;42.636;23.294;2022-09-09T13:52:46;11.02;;;7.90;;
42944;SDS011;28584;42.636;23.294;2022-09-09T13:55:14;14.10;;;7.97;;
42944;SDS011;28584;42.636;23.294;2022-09-09T13:57:39;10.30;;;7.40;;
42944;SDS011;28584;42.636;23.294;2022-09-09T14:00:31;10.77;;;8.02;;
42944;SDS011;28584;42.636;23.294;2022-09-09T14:02:58;9.80;;;8.23;;
42944;SDS011;28584;42.636;23.294;2022-09-09T14:05:27;9.43;;;7.47;;
42944;SDS011;28584;42.636;23.294;2022-09-09T14:07:54;13.25;;;8.25;;
42944;SDS011;28584;42.636;23.294;2022-09-09T14:10:19;10.50;;;7.80;;
42944;SDS011;28584;42.636;23.294;2022-09-09T14:12:45;9.90;;;7.35;;
42944;SDS011;28584;42.636;23.294;2022-09-09T14:15:11;16.42;;;7.78;;
42944;SDS011;28584;42.636;23.294;2022-09-09T14:17:37;11.02;;;7.70;;
42944;SDS011;28584;42.636;23.294;2022-09-09T14:20:03;9.73;;;7.78;;
42944;SDS011;28584;42.636;23.294;2022-09-09T14:22:32;12.45;;;8.20;;
42944;SDS011;28584;42.636;23.294;2022-09-09T14:24:58;14.35;;;8.50;;
42944;SDS011;28584;42.636;23.294;2022-09-09T14:27:24;11.90;;;7.90;;
42944;SDS011;28584;42.636;23.294;2022-09-09T14:29:51;12.27;;;8.00;;
42944;SDS011;28584;42.636;23.294;2022-09-09T14:32:16;11.40;;;8.00;;
42944;SDS011;28584;42.636;23.294;2022-09-09T14:34:42;13.15;;;8.88;;
42944;SDS011;28584;42.636;23.294;2022-09-09T14:37:07;18.00;;;8.75;;
42944;SDS011;28584;42.636;23.294;2022-09-09T14:39:33;13.15;;;8.95;;
42944;SDS011;28584;42.636;23.294;2022-09-09T14:41:58;15.75;;;9.60;;
42944;SDS011;28584;42.636;23.294;2022-09-09T14:44:24;17.75;;;9.02;;
42944;SDS011;28584;42.636;23.294;2022-09-09T14:46:49;19.98;;;8.98;;
42944;SDS011;28584;42.636;23.294;2022-09-09T14:49:19;12.35;;;9.13;;
42944;SDS011;28584;42.636;23.294;2022-09-09T14:51:44;16.63;;;9.45;;
42944;SDS011;28584;42.636;23.294;2022-09-09T14:54:10;12.68;;;8.65;;
42944;SDS011;28584;42.636;23.294;2022-09-09T14:56:35;15.07;;;8.75;;
42944;SDS011;28584;42.636;23.294;2022-09-09T14:59:01;13.82;;;8.82;;
42944;SDS011;28584;42.636;23.294;2022-09-09T15:01:27;20.05;;;9.00;;
42944;SDS011;28584;42.636;23.294;2022-09-09T15:03:58;15.60;;;9.25;;
42944;SDS011;28584;42.636;23.294;2022-09-09T15:06:28;16.80;;;8.70;;
42944;SDS011;28584;42.636;23.294;2022-09-09T15:08:56;14.75;;;8.95;;
42944;SDS011;28584;42.636;23.294;2022-09-09T15:11:28;14.48;;;9.00;;
42944;SDS011;28584;42.636;23.294;2022-09-09T15:13:55;14.27;;;9.35;;
42944;SDS011;28584;42.636;23.294;2022-09-09T15:16:23;15.18;;;9.45;;
42944;SDS011;28584;42.636;23.294;2022-09-09T15:18:52;15.77;;;10.00;;
42944;SDS011;28584;42.636;23.294;2022-09-09T15:21:21;12.32;;;8.98;;
42944;SDS011;28584;42.636;23.294;2022-09-09T15:23:48;15.63;;;8.63;;
42944;SDS011;28584;42.636;23.294;2022-09-09T15:26:14;9.63;;;8.57;;
42944;SDS011;28584;42.636;23.294;2022-09-09T15:28:40;17.88;;;9.27;;
42944;SDS011;28584;42.636;23.294;2022-09-09T15:31:30;13.43;;;9.05;;
42944;SDS011;28584;42.636;23.294;2022-09-09T15:33:59;12.45;;;8.80;;
42944;SDS011;28584;42.636;23.294;2022-09-09T15:36:27;18.65;;;9.48;;
42944;SDS011;28584;42.636;23.294;2022-09-09T15:39:00;13.82;;;8.60;;
42944;SDS011;28584;42.636;23.294;2022-09-09T15:41:26;12.45;;;9.05;;
42944;SDS011;28584;42.636;23.294;2022-09-09T15:43:53;17.08;;;10.75;;
42944;SDS011;28584;42.636;23.294;2022-09-09T15:46:29;15.10;;;9.07;;
42944;SDS011;28584;42.636;23.294;2022-09-09T15:48:58;11.73;;;8.73;;
42944;SDS011;28584;42.636;23.294;2022-09-09T15:51:31;13.45;;;8.70;;
42944;SDS011;28584;42.636;23.294;2022-09-09T15:53:58;12.05;;;8.23;;
42944;SDS011;28584;42.636;23.294;2022-09-09T15:56:24;14.27;;;8.32;;
42944;SDS011;28584;42.636;23.294;2022-09-09T15:58:52;17.15;;;8.80;;
42944;SDS011;28584;42.636;23.294;2022-09-09T16:01:17;16.63;;;9.27;;
42944;SDS011;28584;42.636;23.294;2022-09-09T16:03:44;12.98;;;8.57;;
42944;SDS011;28584;42.636;23.294;2022-09-09T16:06:15;14.00;;;8.88;;
42944;SDS011;28584;42.636;23.294;2022-09-09T16:08:46;14.57;;;8.73;;
42944;SDS011;28584;42.636;23.294;2022-09-09T16:11:16;13.20;;;8.52;;
42944;SDS011;28584;42.636;23.294;2022-09-09T16:13:45;12.15;;;8.77;;
42944;SDS011;28584;42.636;23.294;2022-09-09T16:16:11;15.02;;;9.73;;
42944;SDS011;28584;42.636;23.294;2022-09-09T16:18:48;17.40;;;10.20;;
42944;SDS011;28584;42.636;23.294;2022-09-09T16:21:20;11.73;;;9.73;;
42944;SDS011;28584;42.636;23.294;2022-09-09T16:23:49;13.13;;;9.38;;
42944;SDS011;28584;42.636;23.294;2022-09-09T16:26:17;17.50;;;10.13;;
42944;SDS011;28584;42.636;23.294;2022-09-09T16:28:42;15.18;;;9.98;;
42944;SDS011;28584;42.636;23.294;2022-09-09T16:31:13;11.18;;;9.60;;
42944;SDS011;28584;42.636;23.294;2022-09-09T16:33:41;13.43;;;9.15;;
42944;SDS011;28584;42.636;23.294;2022-09-09T16:36:14;12.45;;;9.35;;
42944;SDS011;28584;42.636;23.294;2022-09-09T16:38:41;11.25;;;9.05;;
42944;SDS011;28584;42.636;23.294;2022-09-09T16:41:11;14.02;;;10.13;;
42944;SDS011;28584;42.636;23.294;2022-09-09T16:43:37;13.13;;;9.35;;
42944;SDS011;28584;42.636;23.294;2022-09-09T16:46:14;15.38;;;9.88;;
42944;SDS011;28584;42.636;23.294;2022-09-09T16:48:41;11.18;;;8.82;;